createdAt,value
2018-10-17T00:00:30.477Z,75.1
2018-10-17T00:01:11.135Z,75.01
2018-10-17T00:01:51.631Z,75.2
2018-10-17T00:02:32.191Z,75.01
2018-10-17T00:03:12.876Z,75.01
2018-10-17T00:03:53.434Z,75.01
2018-10-17T00:04:34.023Z,75.3
2018-10-17T00:05:14.727Z,75.59
2018-10-17T00:05:55.135Z,75.39
2018-10-17T00:06:35.687Z,75.49
2018-10-17T00:07:17.965Z,75.39
2018-10-17T00:07:58.519Z,75.49
2018-10-17T00:08:39.097Z,75.49
2018-10-17T00:09:19.664Z,75.59
2018-10-17T00:10:00.216Z,75.49
2018-10-17T00:10:40.800Z,75.49
2018-10-17T00:11:21.358Z,75.59
2018-10-17T00:12:01.925Z,75.39
2018-10-17T00:12:42.483Z,75.49
2018-10-17T00:13:23.022Z,75.49
2018-10-17T00:14:03.603Z,75.3
2018-10-17T00:14:44.191Z,75.59
2018-10-17T00:15:24.744Z,75.3
2018-10-17T00:16:05.295Z,75.49
2018-10-17T00:16:45.873Z,75.39
2018-10-17T00:17:26.447Z,75.87
2018-10-17T00:18:06.992Z,75.68
2018-10-17T00:18:47.549Z,75.87
2018-10-17T00:19:28.098Z,76.35
2018-10-17T00:20:08.653Z,76.06
2018-10-17T00:20:49.221Z,76.16
2018-10-17T00:21:29.790Z,76.25
2018-10-17T00:22:10.370Z,75.87
2018-10-17T00:22:51.041Z,75.87
2018-10-17T00:23:31.539Z,75.87
2018-10-17T00:24:12.126Z,76.06
2018-10-17T00:24:52.723Z,75.87
2018-10-17T00:25:33.288Z,75.87
2018-10-17T00:26:13.871Z,76.06
2018-10-17T00:26:54.443Z,75.96
2018-10-17T00:27:34.994Z,76.16
2018-10-17T00:28:15.591Z,76.06
2018-10-17T00:28:56.210Z,76.21
2018-10-17T00:29:36.769Z,76.25
2018-10-17T00:30:17.331Z,76.21
2018-10-17T00:30:57.968Z,76.54
2018-10-17T00:31:38.483Z,76.21
2018-10-17T00:32:19.054Z,76.16
2018-10-17T00:32:59.637Z,76.12
2018-10-17T00:33:40.238Z,76.88
2018-10-17T00:34:20.823Z,77.08
2018-10-17T00:35:01.504Z,76.25
2018-10-17T00:35:41.989Z,76.5
2018-10-17T00:36:22.538Z,76.21
2018-10-17T00:37:03.215Z,76.54
2018-10-17T00:37:43.712Z,76.4
2018-10-17T00:38:24.285Z,76.31
2018-10-17T00:39:04.863Z,76.5
2018-10-17T00:39:45.432Z,76.21
2018-10-17T00:40:26.069Z,76.88
2018-10-17T00:41:06.618Z,76.88
2018-10-17T00:41:47.139Z,76.69
2018-10-17T00:42:27.719Z,76.69
2018-10-17T00:43:08.361Z,76.69
2018-10-17T00:43:48.892Z,77.17
2018-10-17T00:44:29.492Z,76.79
2018-10-17T00:45:10.081Z,76.98
2018-10-17T00:45:50.627Z,76.98
2018-10-17T00:46:31.203Z,76.98
2018-10-17T00:47:11.796Z,77.17
2018-10-17T00:47:52.324Z,77.26
2018-10-17T00:48:32.874Z,77.17
2018-10-17T00:49:13.526Z,76.79
2018-10-17T00:49:54.002Z,77.17
2018-10-17T00:50:34.592Z,76.6
2018-10-17T00:51:15.223Z,76.79
2018-10-17T00:51:55.809Z,76.88
2018-10-17T00:52:36.373Z,76.79
2018-10-17T00:53:17.053Z,76.5
2018-10-17T00:53:57.508Z,77.08
2018-10-17T00:54:38.092Z,76.88
2018-10-17T00:55:18.657Z,77.26
2018-10-17T00:55:59.220Z,77.08
2018-10-17T00:56:39.780Z,77.55
2018-10-17T00:57:20.349Z,77.55
2018-10-17T00:58:00.900Z,77.17
2018-10-17T00:58:41.471Z,77.65
2018-10-17T00:59:22.019Z,77.94
2018-10-17T01:00:02.596Z,77.94
2018-10-17T01:00:43.207Z,77.65
2018-10-17T01:01:23.787Z,77.84
2018-10-17T01:02:04.350Z,77.94
2018-10-17T01:02:44.904Z,77.55
2018-10-17T01:03:25.479Z,77.45
2018-10-17T01:04:06.067Z,77.74
2018-10-17T01:04:46.654Z,77.65
2018-10-17T01:05:27.234Z,77.84
2018-10-17T01:06:07.814Z,77.36
2018-10-17T01:06:48.390Z,77.55
2018-10-17T01:07:28.962Z,77.74
2018-10-17T01:08:09.538Z,77.55
2018-10-17T01:08:50.090Z,77.74
2018-10-17T01:09:30.652Z,77.65
2018-10-17T01:10:11.210Z,77.84
2018-10-17T01:10:51.770Z,77.84
2018-10-17T01:11:32.336Z,77.74
2018-10-17T01:12:12.905Z,78.31
2018-10-17T01:12:53.545Z,78.31
2018-10-17T01:13:34.112Z,78.51
2018-10-17T01:14:14.679Z,78.41
2018-10-17T01:14:55.240Z,78.31
2018-10-17T01:15:35.823Z,78.31
2018-10-17T01:16:16.387Z,78.41
2018-10-17T01:16:56.989Z,78.51
2018-10-17T01:17:37.540Z,78.13
2018-10-17T01:18:18.136Z,78.6
2018-10-17T01:18:58.754Z,78.51
2018-10-17T01:19:39.314Z,78.6
2018-10-17T01:20:19.867Z,78.51
2018-10-17T01:21:00.442Z,78.56
2018-10-17T01:21:41.035Z,78.41
2018-10-17T01:22:21.591Z,78.22
2018-10-17T01:23:02.232Z,78.03
2018-10-17T01:23:42.761Z,78.22
2018-10-17T01:24:23.312Z,78.51
2018-10-17T01:25:03.877Z,78.31
2018-10-17T01:25:44.412Z,78.37
2018-10-17T01:26:24.966Z,78.22
2018-10-17T01:27:05.530Z,78.31
2018-10-17T01:27:46.108Z,78.13
2018-10-17T01:28:26.679Z,78.31
2018-10-17T01:29:07.310Z,78.22
2018-10-17T01:29:47.815Z,78.28
2018-10-17T01:30:28.405Z,78.31
2018-10-17T01:31:09.050Z,78.22
2018-10-17T01:31:49.546Z,78.22
2018-10-17T01:32:30.106Z,78.51
2018-10-17T01:33:10.704Z,78.79
2018-10-17T01:33:51.278Z,78.6
2018-10-17T01:34:31.871Z,78.51
2018-10-17T01:35:12.541Z,78.51
2018-10-17T01:35:52.987Z,78.37
2018-10-17T01:36:33.558Z,78.7
2018-10-17T01:37:14.223Z,78.7
2018-10-17T01:37:54.719Z,78.7
2018-10-17T01:38:35.320Z,78.51
2018-10-17T01:39:15.889Z,78.37
2018-10-17T01:39:56.455Z,78.51
2018-10-17T01:40:37.026Z,78.13
2018-10-17T01:41:17.763Z,78.22
2018-10-17T01:41:58.140Z,78.6
2018-10-17T01:42:38.726Z,78.22
2018-10-17T01:43:19.404Z,78.6
2018-10-17T01:43:59.829Z,78.22
2018-10-17T01:44:40.396Z,78.41
2018-10-17T01:45:20.980Z,78.22
2018-10-17T01:46:01.536Z,78.22
2018-10-17T01:46:42.898Z,78.41
2018-10-17T01:47:23.559Z,78.31
2018-10-17T01:48:04.144Z,78.13
2018-10-17T01:48:44.718Z,77.99
2018-10-17T01:49:25.314Z,78.22
2018-10-17T01:50:05.880Z,78.13
2018-10-17T01:50:46.457Z,78.31
2018-10-17T01:51:27.045Z,78.31
2018-10-17T01:52:07.612Z,78.22
2018-10-17T01:52:48.160Z,78.22
2018-10-17T01:53:28.730Z,78.18
2018-10-17T01:54:09.282Z,78.22
2018-10-17T01:54:49.866Z,77.94
2018-10-17T01:55:30.440Z,77.84
2018-10-17T01:56:11.050Z,78.03
2018-10-17T01:56:51.632Z,78.03
2018-10-17T01:57:32.207Z,77.74
2018-10-17T01:58:12.786Z,77.74
2018-10-17T01:58:53.377Z,77.8
2018-10-17T01:59:33.881Z,78.31
2018-10-17T02:00:14.474Z,78.18
2018-10-17T02:00:55.086Z,78.18
2018-10-17T02:01:35.642Z,78.18
2018-10-17T02:02:16.185Z,78.56
2018-10-17T02:02:56.800Z,78.47
2018-10-17T02:03:37.378Z,78.47
2018-10-17T02:04:17.958Z,78.56
2018-10-17T02:04:58.548Z,78.94
2018-10-17T02:05:39.114Z,78.94
2018-10-17T02:06:19.684Z,78.94
2018-10-17T02:07:00.328Z,78.75
2018-10-17T02:07:40.858Z,79.14
2018-10-17T02:08:21.441Z,78.94
2018-10-17T02:09:02.003Z,78.94
2018-10-17T02:09:42.561Z,78.94
2018-10-17T02:10:23.149Z,78.94
2018-10-17T02:11:03.794Z,78.85
2018-10-17T02:11:44.308Z,78.94
2018-10-17T02:12:24.869Z,79.04
2018-10-17T02:13:05.485Z,78.94
2018-10-17T02:13:46.018Z,78.75
2018-10-17T02:14:26.572Z,78.94
2018-10-17T02:15:07.151Z,79.04
2018-10-17T02:15:47.706Z,79.43
2018-10-17T02:16:28.274Z,79.43
2018-10-17T02:17:08.973Z,79.52
2018-10-17T02:17:49.433Z,79.33
2018-10-17T02:18:29.984Z,79.14
2018-10-17T02:19:10.592Z,79.33
2018-10-17T02:19:51.117Z,79.43
2018-10-17T02:20:31.683Z,79.43
2018-10-17T02:21:12.248Z,79.33
2018-10-17T02:21:52.829Z,79.43
2018-10-17T02:22:33.409Z,79.43
2018-10-17T02:23:14.115Z,78.94
2018-10-17T02:23:54.522Z,78.94
2018-10-17T02:24:35.146Z,78.94
2018-10-17T02:25:15.917Z,79.04
2018-10-17T02:25:56.275Z,79.14
2018-10-17T02:26:36.833Z,79.04
2018-10-17T02:27:17.371Z,78.75
2018-10-17T02:27:57.941Z,79.04
2018-10-17T02:28:38.524Z,79.14
2018-10-17T02:29:19.118Z,78.85
2018-10-17T02:29:59.800Z,78.94
2018-10-17T02:30:40.243Z,78.75
2018-10-17T02:31:20.817Z,79.04
2018-10-17T02:32:01.372Z,78.94
2018-10-17T02:32:41.911Z,78.85
2018-10-17T02:33:22.462Z,78.94
2018-10-17T02:34:03.024Z,78.85
2018-10-17T02:34:43.590Z,78.94
2018-10-17T02:35:24.186Z,78.94
2018-10-17T02:36:04.738Z,78.75
2018-10-17T02:36:45.339Z,79.43
2018-10-17T02:37:25.897Z,79.14
2018-10-17T02:38:06.457Z,79.43
2018-10-17T02:38:47.078Z,79.04
2018-10-17T02:39:27.640Z,79.23
2018-10-17T02:40:08.207Z,79.43
2018-10-17T02:40:48.813Z,79.61
2018-10-17T02:41:29.407Z,79.43
2018-10-17T02:42:09.978Z,79.33
2018-10-17T02:42:50.613Z,79.43
2018-10-17T02:43:31.134Z,79.14
2018-10-17T02:44:11.708Z,79.71
2018-10-17T02:44:52.273Z,79.8
2018-10-17T02:45:32.974Z,79.8
2018-10-17T02:46:13.557Z,79.9
2018-10-17T02:46:54.152Z,79.61
2018-10-17T02:47:34.716Z,79.8
2018-10-17T02:48:15.288Z,79.43
2018-10-17T02:48:55.911Z,79.43
2018-10-17T02:49:36.437Z,79.43
2018-10-17T02:50:17.025Z,79.43
2018-10-17T02:50:57.627Z,79.8
2018-10-17T02:51:38.198Z,79.9
2018-10-17T02:52:18.740Z,79.52
2018-10-17T02:52:59.304Z,79.52
2018-10-17T02:53:39.890Z,79.71
2018-10-17T02:54:20.467Z,79.52
2018-10-17T02:55:01.062Z,79.52
2018-10-17T02:55:41.604Z,79.71
2018-10-17T02:56:22.181Z,79.52
2018-10-17T02:57:02.770Z,79.9
2018-10-17T02:57:43.355Z,79.61
2018-10-17T02:58:23.909Z,79.52
2018-10-17T02:59:04.500Z,79.8
2018-10-17T02:59:45.047Z,79.52
2018-10-17T03:00:25.616Z,79.52
2018-10-17T03:01:06.225Z,79.33
2018-10-17T03:01:46.764Z,79.71
2018-10-17T03:02:27.338Z,79.52
2018-10-17T03:03:07.922Z,79.99
2018-10-17T03:03:48.486Z,79.71
2018-10-17T03:04:29.058Z,79.71
2018-10-17T03:05:09.714Z,79.61
2018-10-17T03:05:50.210Z,79.71
2018-10-17T03:06:30.780Z,79.8
2018-10-17T03:07:11.509Z,79.99
2018-10-17T03:07:51.953Z,79.99
2018-10-17T03:08:32.516Z,80.09
2018-10-17T03:09:13.097Z,79.99
2018-10-17T03:09:53.670Z,79.71
2018-10-17T03:10:34.222Z,80.09
2018-10-17T03:11:14.876Z,80.28
2018-10-17T03:11:55.372Z,79.99
2018-10-17T03:12:35.940Z,79.99
2018-10-17T03:13:16.596Z,80.47
2018-10-17T03:13:57.059Z,80.66
2018-10-17T03:14:37.623Z,80.47
2018-10-17T03:15:18.181Z,80.57
2018-10-17T03:15:58.768Z,80.57
2018-10-17T03:16:39.367Z,80.76
2018-10-17T03:17:20.072Z,80.72
2018-10-17T03:18:00.491Z,80.57
2018-10-17T03:18:41.040Z,80.43
2018-10-17T03:19:21.731Z,80.38
2018-10-17T03:20:02.223Z,80.28
2018-10-17T03:20:42.817Z,80.66
2018-10-17T03:21:23.394Z,80.38
2018-10-17T03:22:03.982Z,80.62
2018-10-17T03:22:44.521Z,81.24
2018-10-17T03:23:25.075Z,80.85
2018-10-17T03:24:05.658Z,80.95
2018-10-17T03:24:46.229Z,80.95
2018-10-17T03:25:26.814Z,81.01
2018-10-17T03:26:07.428Z,80.91
2018-10-17T03:26:47.984Z,81.01
2018-10-17T03:27:28.548Z,80.57
2018-10-17T03:28:09.116Z,80.62
2018-10-17T03:28:49.627Z,80.57
2018-10-17T03:29:30.217Z,81.04
2018-10-17T03:30:10.824Z,80.57
2018-10-17T03:30:51.444Z,80.43
2018-10-17T03:31:32.018Z,81.1
2018-10-17T03:32:12.539Z,81.01
2018-10-17T03:32:53.123Z,80.91
2018-10-17T03:33:33.683Z,80.72
2018-10-17T03:34:14.231Z,81.1
2018-10-17T03:34:54.851Z,81.29
2018-10-17T03:35:35.391Z,81.1
2018-10-17T03:36:15.959Z,81.24
2018-10-17T03:36:56.536Z,81.29
2018-10-17T03:37:37.128Z,81.1
2018-10-17T03:38:17.725Z,81.29
2018-10-17T03:38:58.279Z,81.1
2018-10-17T03:39:38.863Z,80.72
2018-10-17T03:40:19.436Z,80.72
2018-10-17T03:41:00.040Z,80.72
2018-10-17T03:41:40.582Z,80.95
2018-10-17T03:42:21.154Z,80.91
2018-10-17T03:43:01.741Z,81.04
2018-10-17T03:43:42.269Z,80.62
2018-10-17T03:44:22.836Z,80.81
2018-10-17T03:45:03.407Z,80.72
2018-10-17T03:45:43.957Z,80.72
2018-10-17T03:46:24.527Z,81.01
2018-10-17T03:47:05.172Z,81.29
2018-10-17T03:47:45.648Z,81.1
2018-10-17T03:48:26.200Z,81.1
2018-10-17T03:49:06.844Z,81.01
2018-10-17T03:49:47.391Z,81.67
2018-10-17T03:50:27.938Z,81.48
2018-10-17T03:51:08.489Z,81.2
2018-10-17T03:51:49.059Z,81.48
2018-10-17T03:52:29.635Z,81.67
2018-10-17T03:53:10.237Z,81.48
2018-10-17T03:53:50.756Z,81.1
2018-10-17T03:54:31.373Z,81.38
2018-10-17T03:55:12.041Z,81.2
2018-10-17T03:55:52.524Z,81.1
2018-10-17T03:56:33.095Z,81.29
2018-10-17T03:57:13.657Z,81.2
2018-10-17T03:57:54.230Z,81.29
2018-10-17T03:58:34.775Z,81.38
2018-10-17T03:59:15.460Z,81.01
2018-10-17T03:59:55.904Z,81.1
2018-10-17T04:00:36.480Z,81.1
2018-10-17T04:01:17.175Z,81.29
2018-10-17T04:01:57.589Z,81.1
2018-10-17T04:02:38.130Z,81.29
2018-10-17T04:03:18.692Z,81.29
2018-10-17T04:03:59.260Z,81.2
2018-10-17T04:04:39.837Z,81.29
2018-10-17T04:05:20.440Z,81.01
2018-10-17T04:06:00.961Z,81.1
2018-10-17T04:06:41.527Z,81.38
2018-10-17T04:07:22.112Z,81.1
2018-10-17T04:08:02.681Z,81.67
2018-10-17T04:08:43.240Z,81.48
2018-10-17T04:09:23.854Z,81.67
2018-10-17T04:10:04.424Z,81.67
2018-10-17T04:10:44.997Z,81.58
2018-10-17T04:11:25.558Z,81.58
2018-10-17T04:12:06.124Z,81.58
2018-10-17T04:12:46.695Z,81.38
2018-10-17T04:13:27.260Z,81.48
2018-10-17T04:14:07.818Z,81.77
2018-10-17T04:14:48.379Z,81.29
2018-10-17T04:15:28.923Z,81.48
2018-10-17T04:16:09.506Z,81.86
2018-10-17T04:16:50.090Z,81.58
2018-10-17T04:17:30.650Z,81.38
2018-10-17T04:18:11.204Z,81.86
2018-10-17T04:18:51.867Z,81.67
2018-10-17T04:19:32.364Z,81.96
2018-10-17T04:20:13.055Z,82.24
2018-10-17T04:20:53.724Z,82.15
2018-10-17T04:21:34.286Z,82.15
2018-10-17T04:22:14.851Z,82.24
2018-10-17T04:22:55.396Z,82.24
2018-10-17T04:23:35.959Z,82.24
2018-10-17T04:24:16.511Z,82.24
2018-10-17T04:24:57.092Z,82.15
2018-10-17T04:25:37.624Z,82.24
2018-10-17T04:26:18.207Z,82.06
2018-10-17T04:26:58.798Z,82.34
2018-10-17T04:27:39.356Z,81.58
2018-10-17T04:28:19.924Z,81.48
2018-10-17T04:29:00.510Z,81.77
2018-10-17T04:29:41.042Z,81.67
2018-10-17T04:30:21.611Z,81.77
2018-10-17T04:31:02.230Z,81.38
2018-10-17T04:31:42.779Z,81.01
2018-10-17T04:32:23.335Z,81.2
2018-10-17T04:33:03.905Z,81.2
2018-10-17T04:33:44.451Z,80.81
2018-10-17T04:34:24.990Z,80.72
2018-10-17T04:35:05.607Z,80.72
2018-10-17T04:35:46.220Z,80.81
2018-10-17T04:36:26.801Z,81.1
2018-10-17T04:37:07.483Z,81.1
2018-10-17T04:37:47.929Z,80.53
2018-10-17T04:38:28.493Z,80.33
2018-10-17T04:39:09.039Z,80.72
2018-10-17T04:39:49.611Z,80.72
2018-10-17T04:40:30.175Z,80.53
2018-10-17T04:41:10.842Z,80.53
2018-10-17T04:41:51.340Z,80.53
2018-10-17T04:42:31.893Z,80.62
2018-10-17T04:43:12.629Z,81.01
2018-10-17T04:43:53.074Z,80.53
2018-10-17T04:44:33.620Z,80.72
2018-10-17T04:45:14.202Z,81.01
2018-10-17T04:45:54.760Z,81.01
2018-10-17T04:46:35.309Z,80.91
2018-10-17T04:47:15.971Z,80.91
2018-10-17T04:47:56.413Z,80.81
2018-10-17T04:48:36.973Z,81.01
2018-10-17T04:49:17.637Z,80.53
2018-10-17T04:49:58.143Z,80.72
2018-10-17T04:50:38.703Z,80.91
2018-10-17T04:51:19.252Z,81.1
2018-10-17T04:51:59.807Z,81.2
2018-10-17T04:52:40.382Z,81.2
2018-10-17T04:53:20.945Z,81.29
2018-10-17T04:54:01.505Z,81.2
2018-10-17T04:54:42.063Z,81.2
2018-10-17T04:55:22.639Z,81.77
2018-10-17T04:56:03.200Z,81.1
2018-10-17T04:56:43.774Z,81.48
2018-10-17T04:57:24.332Z,81.67
2018-10-17T04:58:04.888Z,81.58
2018-10-17T04:58:45.462Z,81.58
2018-10-17T04:59:26.023Z,81.2
2018-10-17T05:00:06.573Z,81.38
2018-10-17T05:00:47.144Z,81.67
2018-10-17T05:01:27.753Z,81.58
2018-10-17T05:02:08.326Z,82.24
2018-10-17T05:02:48.903Z,81.77
2018-10-17T05:03:29.475Z,82.24
2018-10-17T05:04:10.048Z,82.15
2018-10-17T05:04:50.648Z,82.34
2018-10-17T05:05:31.214Z,82.06
2018-10-17T05:06:11.767Z,81.96
2018-10-17T05:06:52.442Z,82.06
2018-10-17T05:07:32.856Z,82.15
2018-10-17T05:08:13.474Z,82.06
2018-10-17T05:08:54.037Z,82.15
2018-10-17T05:09:34.602Z,82.24
2018-10-17T05:10:15.162Z,82.34
2018-10-17T05:10:55.817Z,81.77
2018-10-17T05:11:36.325Z,81.77
2018-10-17T05:12:16.880Z,81.48
2018-10-17T05:12:57.467Z,81.2
2018-10-17T05:13:38.000Z,81.96
2018-10-17T05:14:18.598Z,81.67
2018-10-17T05:14:59.199Z,81.29
2018-10-17T05:15:39.702Z,81.48
2018-10-17T05:16:20.267Z,81.86
2018-10-17T05:17:00.856Z,81.38
2018-10-17T05:17:41.436Z,81.48
2018-10-17T05:18:21.987Z,81.38
2018-10-17T05:19:02.531Z,81.86
2018-10-17T05:19:43.070Z,81.48
2018-10-17T05:20:23.645Z,81.58
2018-10-17T05:21:04.227Z,81.58
2018-10-17T05:21:44.796Z,81.67
2018-10-17T05:22:25.358Z,81.67
2018-10-17T05:23:05.960Z,81.38
2018-10-17T05:23:46.500Z,81.58
2018-10-17T05:24:27.054Z,81.2
2018-10-17T05:25:07.715Z,81.67
2018-10-17T05:25:48.194Z,81.67
2018-10-17T05:26:28.761Z,82.15
2018-10-17T05:27:09.375Z,82.15
2018-10-17T05:27:49.967Z,82.15
2018-10-17T05:28:30.541Z,82.15
2018-10-17T05:29:11.126Z,82.06
2018-10-17T05:29:51.798Z,82.43
2018-10-17T05:30:32.211Z,82.24
2018-10-17T05:31:12.847Z,82.68
2018-10-17T05:31:53.345Z,82.91
2018-10-17T05:32:33.920Z,82.59
2018-10-17T05:33:14.494Z,82.43
2018-10-17T05:33:55.051Z,82.87
2018-10-17T05:34:35.593Z,82.78
2018-10-17T05:35:16.221Z,82.68
2018-10-17T05:35:56.700Z,83.2
2018-10-17T05:36:37.308Z,82.97
2018-10-17T05:37:18.000Z,83.06
2018-10-17T05:37:58.440Z,83.44
2018-10-17T05:38:39.008Z,83.29
2018-10-17T05:39:19.561Z,83.29
2018-10-17T05:40:00.137Z,83.06
2018-10-17T05:40:40.683Z,83.67
2018-10-17T05:41:21.229Z,83.29
2018-10-17T05:42:01.787Z,83.39
2018-10-17T05:42:42.357Z,83.39
2018-10-17T05:43:22.947Z,83.39
2018-10-17T05:44:03.490Z,83.58
2018-10-17T05:44:44.052Z,83.29
2018-10-17T05:45:24.638Z,83.39
2018-10-17T05:46:05.274Z,82.82
2018-10-17T05:46:45.814Z,83.01
2018-10-17T05:47:26.406Z,83.11
2018-10-17T05:48:06.974Z,82.91
2018-10-17T05:48:47.537Z,82.63
2018-10-17T05:49:28.105Z,82.53
2018-10-17T05:50:08.655Z,82.53
2018-10-17T05:50:49.223Z,82.91
2018-10-17T05:51:29.792Z,83.01
2018-10-17T05:52:10.351Z,82.82
2018-10-17T05:52:51.537Z,82.72
2018-10-17T05:53:32.225Z,82.72
2018-10-17T05:54:12.880Z,82.82
2018-10-17T05:54:53.641Z,82.34
2018-10-17T05:55:34.335Z,82.72
2018-10-17T05:56:14.903Z,82.34
2018-10-17T05:56:55.475Z,82.24
2018-10-17T05:57:36.080Z,82.43
2018-10-17T05:58:16.666Z,81.86
2018-10-17T05:58:57.299Z,82.15
2018-10-17T05:59:37.851Z,82.06
2018-10-17T06:00:18.457Z,82.34
2018-10-17T06:00:59.061Z,82.15
2018-10-17T06:01:39.943Z,81.67
2018-10-17T06:02:20.841Z,81.58
2018-10-17T06:03:01.378Z,81.58
2018-10-17T06:03:42.333Z,81.48
2018-10-17T06:04:23.203Z,81.67
2018-10-17T06:05:04.073Z,81.58
2018-10-17T06:05:44.912Z,81.77
2018-10-17T06:06:25.776Z,81.48
2018-10-17T06:07:07.484Z,81.77
2018-10-17T06:07:47.982Z,81.96
2018-10-17T06:08:28.603Z,81.77
2018-10-17T06:09:09.181Z,81.58
2018-10-17T06:09:49.799Z,81.77
2018-10-17T06:10:30.355Z,82.34
2018-10-17T06:11:10.991Z,82.15
2018-10-17T06:11:51.910Z,82.15
2018-10-17T06:12:33.156Z,82.15
2018-10-17T06:13:13.862Z,82.06
2018-10-17T06:13:54.498Z,82.24
2018-10-17T06:14:35.048Z,81.96
2018-10-17T06:15:15.707Z,83.58
2018-10-17T06:15:56.286Z,87.49
2018-10-17T06:16:36.831Z,90.36
2018-10-17T06:17:17.509Z,90.97
2018-10-17T06:17:58.012Z,89.92
2018-10-17T06:18:38.588Z,89.25
2018-10-17T06:19:19.132Z,88.25
2018-10-17T06:19:59.684Z,87.68
2018-10-17T06:20:40.240Z,86.91
2018-10-17T06:21:20.791Z,85.67
2018-10-17T06:22:01.339Z,83.7
2018-10-17T06:22:41.927Z,83.33
2018-10-17T06:23:22.495Z,82.94
2018-10-17T06:24:03.045Z,81.79
2018-10-17T06:24:43.614Z,81.07
2018-10-17T06:25:24.162Z,80.55
2018-10-17T06:26:04.740Z,79.83
2018-10-17T06:26:45.334Z,79.54
2018-10-17T06:27:25.945Z,78.97
2018-10-17T06:28:06.532Z,78.87
2018-10-17T06:28:47.122Z,79.73
2018-10-17T06:29:27.696Z,78.78
2018-10-17T06:30:08.252Z,79.25
2018-10-17T06:30:48.861Z,77.72
2018-10-17T06:31:29.356Z,77.25
2018-10-17T06:32:09.919Z,77.34
2018-10-17T06:32:50.483Z,77.25
2018-10-17T06:33:31.046Z,76.86
2018-10-17T06:34:11.688Z,77.09
2018-10-17T06:34:52.340Z,76.42
2018-10-17T06:35:32.746Z,75.85
2018-10-17T06:36:13.331Z,75.27
2018-10-17T06:36:53.954Z,75.47
2018-10-17T06:37:34.575Z,74.61
2018-10-17T06:38:15.125Z,75.09
2018-10-17T06:38:55.724Z,74.99
2018-10-17T06:39:36.279Z,74.61
2018-10-17T06:40:16.841Z,75.18
2018-10-17T06:40:57.394Z,75.09
2018-10-17T06:41:37.980Z,74.99
2018-10-17T06:42:18.579Z,74.13
2018-10-17T06:42:59.124Z,74.04
2018-10-17T06:43:39.817Z,74.51
2018-10-17T06:44:20.260Z,73.88
2018-10-17T06:45:00.930Z,73.5
2018-10-17T06:45:41.523Z,73.21
2018-10-17T06:46:22.059Z,73.11
2018-10-17T06:47:02.725Z,72.63
2018-10-17T06:47:43.191Z,72.25
2018-10-17T06:48:23.854Z,71.97
2018-10-17T06:49:04.587Z,71.77
2018-10-17T06:49:46.032Z,71.33
2018-10-17T06:50:28.321Z,70.76
2018-10-17T06:51:10.415Z,71.14
2018-10-17T06:51:52.799Z,70.66
2018-10-17T06:52:34.227Z,70.47
2018-10-17T06:53:19.316Z,69.89
2018-10-17T06:54:00.546Z,69.6
2018-10-17T06:54:42.430Z,69.6
2018-10-17T06:55:23.723Z,69.42
2018-10-17T06:56:05.917Z,69.51
2018-10-17T06:56:49.351Z,69.42
2018-10-17T06:57:31.390Z,69.32
2018-10-17T06:58:13.031Z,68.94
2018-10-17T06:58:54.233Z,69.13
2018-10-17T06:59:35.548Z,69.03
2018-10-17T07:00:16.767Z,69.13
2018-10-17T07:00:58.173Z,69.13
2018-10-17T07:01:40.514Z,69.13
2018-10-17T07:02:26.256Z,68.55
2018-10-17T07:03:07.393Z,68.27
2018-10-17T07:03:48.648Z,68.36
2018-10-17T07:04:29.737Z,67.98
2018-10-17T07:05:10.713Z,67.21
2018-10-17T07:05:51.144Z,67.88
2018-10-17T07:06:31.717Z,67.88
2018-10-17T07:07:12.375Z,68.07
2018-10-17T07:07:52.848Z,68.07
2018-10-17T07:08:33.476Z,67.88
2018-10-17T07:09:14.132Z,67.41
2018-10-17T07:09:54.720Z,67.5
2018-10-17T07:10:35.309Z,68.17
2018-10-17T07:11:15.982Z,67.79
2018-10-17T07:11:56.453Z,67.6
2018-10-17T07:12:37.026Z,67.5
2018-10-17T07:13:17.661Z,67.6
2018-10-17T07:13:58.155Z,67.6
2018-10-17T07:14:38.723Z,67.79
2018-10-17T07:15:19.399Z,67.21
2018-10-17T07:15:59.954Z,67.11
2018-10-17T07:16:41.475Z,66.93
2018-10-17T07:17:22.197Z,67.02
2018-10-17T07:18:03.361Z,67.05
2018-10-17T07:18:43.980Z,66.67
2018-10-17T07:19:25.202Z,66.96
2018-10-17T07:20:06.027Z,66.29
2018-10-17T07:20:47.102Z,66
2018-10-17T07:21:28.005Z,65.71
2018-10-17T07:22:09.013Z,66.19
2018-10-17T07:22:49.942Z,65.81
2018-10-17T07:23:30.816Z,65.62
2018-10-17T07:24:11.723Z,65.52
2018-10-17T07:24:52.324Z,65.81
2018-10-17T07:25:32.898Z,64.95
2018-10-17T07:26:13.482Z,64.53
2018-10-17T07:26:54.041Z,65.11
2018-10-17T07:27:34.634Z,65.68
2018-10-17T07:28:15.203Z,65.68
2018-10-17T07:28:55.893Z,66.41
2018-10-17T07:29:36.515Z,66.41
2018-10-17T07:30:16.923Z,67.37
2018-10-17T07:30:57.550Z,67.47
2018-10-17T07:31:38.061Z,68.33
2018-10-17T07:32:18.611Z,68.39
2018-10-17T07:32:59.166Z,68.68
2018-10-17T07:33:39.980Z,68.77
2018-10-17T07:34:20.563Z,69.64
2018-10-17T07:35:01.134Z,70.4
2018-10-17T07:35:41.684Z,70.3
2018-10-17T07:36:22.233Z,70.97
2018-10-17T07:37:02.872Z,70.87
2018-10-17T07:37:43.476Z,70.91
2018-10-17T07:38:24.044Z,70.72
2018-10-17T07:39:04.624Z,70.24
2018-10-17T07:39:45.173Z,70.05
2018-10-17T07:40:26.568Z,69.23
2018-10-17T07:41:07.129Z,68.65
2018-10-17T07:41:47.723Z,68.07
2018-10-17T07:42:28.290Z,67.34
2018-10-17T07:43:08.853Z,66.96
2018-10-17T07:43:49.525Z,66.67
2018-10-17T07:44:30.097Z,66
2018-10-17T07:45:10.690Z,65.26
2018-10-17T07:45:51.260Z,64.79
2018-10-17T07:46:31.872Z,64.43
2018-10-17T07:47:12.467Z,64.25
2018-10-17T07:47:53.060Z,63.76
2018-10-17T07:48:33.699Z,63.32
2018-10-17T07:49:14.300Z,62.55
2018-10-17T07:49:54.857Z,62.16
2018-10-17T07:50:35.415Z,61.81
2018-10-17T07:51:16.005Z,60.66
2018-10-17T07:51:56.617Z,60.21
2018-10-17T07:52:37.200Z,59.54
2018-10-17T07:53:17.795Z,59.16
2018-10-17T07:53:58.333Z,58.32
2018-10-17T07:54:38.914Z,58.22
2018-10-17T07:55:19.584Z,57.29
2018-10-17T07:56:00.463Z,56.81
2018-10-17T07:56:41.038Z,56.62
2018-10-17T07:57:21.592Z,56.33
2018-10-17T07:58:02.158Z,56.33
2018-10-17T07:58:42.711Z,55.78
2018-10-17T07:59:23.337Z,55.85
2018-10-17T08:00:04.011Z,55.88
2018-10-17T08:00:44.478Z,55.4
2018-10-17T08:01:25.037Z,55.3
2018-10-17T08:02:05.622Z,55.11
2018-10-17T08:02:46.277Z,55.11
2018-10-17T08:03:26.855Z,54.53
2018-10-17T08:04:07.429Z,54.63
2018-10-17T08:04:48.047Z,54.85
2018-10-17T08:05:28.627Z,54.65
2018-10-17T08:06:09.244Z,54.17
2018-10-17T08:06:49.985Z,54.27
2018-10-17T08:07:30.499Z,53.69
2018-10-17T08:08:11.061Z,53.78
2018-10-17T08:08:51.655Z,53.4
2018-10-17T08:09:32.231Z,53.78
2018-10-17T08:10:12.810Z,53.59
2018-10-17T08:10:53.378Z,53.78
2018-10-17T08:11:33.975Z,53.59
2018-10-17T08:12:14.564Z,53.78
2018-10-17T08:12:55.090Z,53.4
2018-10-17T08:13:35.656Z,53.43
2018-10-17T08:14:16.313Z,53.23
2018-10-17T08:14:56.894Z,52.85
2018-10-17T08:15:37.473Z,53.14
2018-10-17T08:16:18.039Z,52.85
2018-10-17T08:16:58.625Z,53.23
2018-10-17T08:17:39.208Z,53.05
2018-10-17T08:18:19.883Z,52.66
2018-10-17T08:19:00.370Z,52.75
2018-10-17T08:19:40.935Z,52.66
2018-10-17T08:20:21.831Z,52.47
2018-10-17T08:21:03.655Z,52.37
2018-10-17T08:21:44.717Z,52.56
2018-10-17T08:22:25.315Z,52.59
2018-10-17T08:23:05.913Z,52.49
2018-10-17T08:23:46.475Z,52.3
2018-10-17T08:24:27.048Z,51.34
2018-10-17T08:25:07.653Z,51.62
2018-10-17T08:25:48.224Z,50.95
2018-10-17T08:26:28.794Z,50.69
2018-10-17T08:27:09.388Z,50.59
2018-10-17T08:27:49.932Z,50.69
2018-10-17T08:28:30.515Z,50.4
2018-10-17T08:29:11.141Z,50.4
2018-10-17T08:29:51.764Z,50.4
2018-10-17T08:30:32.287Z,50.4
2018-10-17T08:31:12.863Z,50.37
2018-10-17T08:31:53.411Z,50.76
2018-10-17T08:32:33.983Z,50.66
2018-10-17T08:33:14.573Z,50.95
2018-10-17T08:33:55.134Z,51.34
2018-10-17T08:34:35.714Z,51.5
2018-10-17T08:35:16.333Z,51.7
2018-10-17T08:35:57.014Z,52.27
2018-10-17T08:36:37.623Z,52.56
2018-10-17T08:37:18.403Z,52.54
2018-10-17T08:37:58.648Z,53.02
2018-10-17T08:38:39.162Z,52.92
2018-10-17T08:39:19.726Z,53.5
2018-10-17T08:40:00.344Z,53.59
2018-10-17T08:40:41.145Z,53.59
2018-10-17T08:41:21.823Z,53.66
2018-10-17T08:42:02.313Z,54.14
2018-10-17T08:42:42.894Z,54.34
2018-10-17T08:43:24.393Z,54.82
2018-10-17T08:44:04.962Z,54.72
2018-10-17T08:44:45.589Z,54.82
2018-10-17T08:45:26.243Z,55.01